Time;durP1;ratioP1;P1;durP2;ratioP2;P2;SDS_P1;SDS_P2;PMS_P1;PMS_P2;Temp;Humidity;BMP_temperature;BMP_pressure;BME280_temperature;BME280_humidity;BME280_pressure;Samples;Min_cycle;Max_cycle;Signal;HPM_P1;HPM_P2
2021/06/11 00:02:15;;;;;;;6.07;3.40;;;;;;;;;;5062942;28;20033;-79
2021/06/11 00:04:41;;;;;;;5.82;3.25;;;;;;;;;;5060881;28;20033;-79
2021/06/11 00:07:06;;;;;;;6.15;3.60;;;;;;;;;;5061006;28;20029;-78
2021/06/11 00:09:32;;;;;;;5.32;2.90;;;;;;;;;;5055794;28;20455;-79
2021/06/11 00:11:57;;;;;;;5.50;3.85;;;;;;;;;;5046599;28;20064;-78
2021/06/11 00:14:23;;;;;;;4.38;3.10;;;;;;;;;;5045490;28;20095;-78
2021/06/11 00:16:48;;;;;;;9.93;3.50;;;;;;;;;;5051528;28;20084;-78
2021/06/11 00:19:14;;;;;;;5.15;2.60;;;;;;;;;;5055437;28;20033;-78
2021/06/11 00:21:39;;;;;;;3.28;2.60;;;;;;;;;;5042588;28;20037;-78
2021/06/11 00:24:05;;;;;;;3.38;2.38;;;;;;;;;;5041919;28;20029;-78
2021/06/11 00:26:31;;;;;;;4.45;2.67;;;;;;;;;;5042241;28;20067;-78
2021/06/11 00:28:56;;;;;;;5.80;2.70;;;;;;;;;;5041172;28;20124;-78
2021/06/11 00:31:22;;;;;;;5.78;3.38;;;;;;;;;;5041066;28;20041;-79
2021/06/11 00:33:47;;;;;;;6.60;3.60;;;;;;;;;;5039883;28;20037;-79
2021/06/11 00:36:12;;;;;;;8.38;3.28;;;;;;;;;;5054274;28;20048;-78
2021/06/11 00:38:38;;;;;;;4.15;2.92;;;;;;;;;;5059242;28;20088;-79
2021/06/11 00:41:03;;;;;;;8.43;3.03;;;;;;;;;;5050188;28;20040;-78
2021/06/11 00:43:29;;;;;;;6.55;2.92;;;;;;;;;;5039486;28;20057;-77
2021/06/11 00:45:54;;;;;;;6.15;3.03;;;;;;;;;;5049723;28;20055;-78
2021/06/11 00:48:20;;;;;;;4.25;3.30;;;;;;;;;;5043109;28;20487;-78
2021/06/11 00:50:46;;;;;;;4.97;2.92;;;;;;;;;;5043222;28;20071;-78
2021/06/11 00:53:11;;;;;;;5.85;2.92;;;;;;;;;;5044510;28;20033;-79
2021/06/11 00:55:43;;;;;;;6.68;2.92;;;;;;;;;;5043861;28;20073;-78
2021/06/11 00:58:10;;;;;;;8.43;3.30;;;;;;;;;;5047111;28;20414;-78
2021/06/11 01:00:35;;;;;;;6.10;3.53;;;;;;;;;;5061867;28;20075;-78
2021/06/11 01:03:01;;;;;;;8.23;3.33;;;;;;;;;;5061802;28;20518;-78
2021/06/11 01:05:26;;;;;;;8.60;3.60;;;;;;;;;;5060988;28;20435;-78
2021/06/11 01:07:53;;;;;;;6.28;3.40;;;;;;;;;;5063313;28;20036;-78
2021/06/11 01:10:18;;;;;;;4.45;3.15;;;;;;;;;;5055899;28;20043;-78
2021/06/11 01:12:45;;;;;;;5.43;3.00;;;;;;;;;;5054100;28;20057;-78
2021/06/11 01:15:12;;;;;;;5.82;2.80;;;;;;;;;;5042075;28;20073;-78
2021/06/11 01:17:38;;;;;;;19.95;3.88;;;;;;;;;;5043921;28;20037;-78
2021/06/11 01:20:07;;;;;;;6.20;3.47;;;;;;;;;;5052600;28;20033;-78
2021/06/11 01:22:53;;;;;;;6.63;3.50;;;;;;;;;;5041199;28;20179;-78
2021/06/11 01:25:32;;;;;;;8.30;3.72;;;;;;;;;;5040899;28;20388;-78
2021/06/11 01:27:57;;;;;;;7.82;3.70;;;;;;;;;;5044634;28;20087;-78
2021/06/11 01:30:25;;;;;;;8.90;3.28;;;;;;;;;;5080344;28;20140;-78
2021/06/11 01:32:53;;;;;;;12.18;3.80;;;;;;;;;;5080617;28;20470;-78
2021/06/11 01:35:25;;;;;;;7.07;3.65;;;;;;;;;;5076318;28;20032;-78
2021/06/11 01:37:59;;;;;;;5.13;3.20;;;;;;;;;;5076001;28;20040;-78
2021/06/11 01:40:24;;;;;;;6.22;3.42;;;;;;;;;;5065042;28;20542;-78
2021/06/11 01:42:50;;;;;;;6.45;3.28;;;;;;;;;;5044005;28;20124;-78
2021/06/11 01:45:17;;;;;;;3.47;3.17;;;;;;;;;;5046737;28;20044;-78
2021/06/11 01:47:45;;;;;;;3.33;2.45;;;;;;;;;;5036563;28;20036;-78
2021/06/11 01:50:15;;;;;;;5.57;3.15;;;;;;;;;;5034996;28;20041;-78
2021/06/11 01:52:41;;;;;;;9.35;3.47;;;;;;;;;;5036169;28;20041;-78
2021/06/11 01:55:09;;;;;;;3.83;3.10;;;;;;;;;;5034805;28;20029;-78
2021/06/11 01:57:35;;;;;;;3.70;3.30;;;;;;;;;;5035849;28;20376;-78
2021/06/11 02:00:03;;;;;;;3.80;3.22;;;;;;;;;;5052500;28;20040;-78
2021/06/11 02:02:30;;;;;;;4.40;3.47;;;;;;;;;;5055780;28;20037;-78
2021/06/11 02:04:56;;;;;;;9.43;3.70;;;;;;;;;;5058089;28;20078;-80
2021/06/11 02:07:24;;;;;;;8.05;3.78;;;;;;;;;;5065354;28;20064;-80
2021/06/11 02:09:50;;;;;;;5.75;2.97;;;;;;;;;;5059857;28;20040;-78
2021/06/11 02:12:17;;;;;;;4.35;2.67;;;;;;;;;;5049753;28;20063;-78
2021/06/11 02:14:44;;;;;;;9.40;3.92;;;;;;;;;;5040534;28;20088;-78
2021/06/11 02:17:10;;;;;;;7.72;3.55;;;;;;;;;;5038453;28;20442;-79
2021/06/11 02:19:38;;;;;;;5.60;3.50;;;;;;;;;;5047931;28;20034;-78
2021/06/11 02:22:05;;;;;;;9.70;4.07;;;;;;;;;;5039244;28;20094;-79
2021/06/11 02:24:33;;;;;;;5.78;4.15;;;;;;;;;;5035633;28;20033;-77
2021/06/11 02:27:01;;;;;;;5.88;3.30;;;;;;;;;;5034515;28;20068;-78
2021/06/11 02:29:26;;;;;;;9.60;5.10;;;;;;;;;;5048699;28;20037;-78
2021/06/11 02:31:51;;;;;;;6.82;4.13;;;;;;;;;;5054352;28;20128;-78
2021/06/11 02:34:17;;;;;;;4.07;3.28;;;;;;;;;;5054630;28;20033;-78
2021/06/11 02:36:42;;;;;;;5.68;2.90;;;;;;;;;;5053974;28;20033;-78
2021/06/11 02:39:08;;;;;;;5.03;3.13;;;;;;;;;;5054457;28;20079;-78
2021/06/11 02:41:39;;;;;;;7.28;3.13;;;;;;;;;;5053355;28;20146;-77
2021/06/11 02:44:07;;;;;;;5.30;3.47;;;;;;;;;;5045172;28;20111;-77
2021/06/11 02:46:39;;;;;;;5.10;3.00;;;;;;;;;;5041772;28;20033;-77
2021/06/11 02:49:28;;;;;;;4.20;3.53;;;;;;;;;;5033829;28;20052;-77
2021/06/11 02:51:57;;;;;;;7.47;4.00;;;;;;;;;;5034754;28;20041;-77
2021/06/11 02:54:27;;;;;;;5.72;3.75;;;;;;;;;;5033698;28;20483;-76
2021/06/11 02:57:00;;;;;;;8.75;3.30;;;;;;;;;;5032825;28;20038;-77
2021/06/11 02:59:38;;;;;;;6.28;3.70;;;;;;;;;;5038673;28;20499;-79
2021/06/11 03:02:08;;;;;;;5.95;3.78;;;;;;;;;;5034031;28;20033;-76
2021/06/11 03:04:35;;;;;;;5.35;3.28;;;;;;;;;;5034185;28;20120;-76
2021/06/11 03:07:02;;;;;;;4.28;3.35;;;;;;;;;;5035249;28;20029;-76
2021/06/11 03:09:27;;;;;;;8.07;3.35;;;;;;;;;;5033388;28;20498;-76
2021/06/11 03:11:56;;;;;;;11.07;3.22;;;;;;;;;;5033055;28;20038;-76
2021/06/11 03:14:22;;;;;;;5.28;2.78;;;;;;;;;;5033883;28;20037;-76
2021/06/11 03:16:53;;;;;;;3.63;2.80;;;;;;;;;;5045519;28;20120;-76
2021/06/11 03:19:20;;;;;;;5.00;2.63;;;;;;;;;;5053289;28;20072;-76
2021/06/11 03:21:48;;;;;;;5.80;3.00;;;;;;;;;;5053312;28;20020;-76
2021/06/11 03:24:25;;;;;;;9.82;3.50;;;;;;;;;;5053471;28;20067;-76
2021/06/11 03:27:22;;;;;;;5.82;3.30;;;;;;;;;;5053375;28;20630;-76
2021/06/11 03:29:55;;;;;;;14.80;4.60;;;;;;;;;;5052795;28;20048;-76
2021/06/11 03:32:26;;;;;;;6.30;4.47;;;;;;;;;;5052212;28;20048;-76
2021/06/11 03:34:55;;;;;;;9.60;4.10;;;;;;;;;;5053470;28;20037;-75
2021/06/11 03:37:22;;;;;;;4.57;3.80;;;;;;;;;;5053223;28;20033;-76
2021/06/11 03:39:55;;;;;;;8.98;3.42;;;;;;;;;;5053493;28;20112;-75
2021/06/11 03:42:21;;;;;;;3.83;3.08;;;;;;;;;;5053642;28;20056;-76
2021/06/11 03:44:49;;;;;;;3.95;3.55;;;;;;;;;;5049391;28;20056;-76
2021/06/11 03:47:19;;;;;;;5.55;3.75;;;;;;;;;;5041909;28;20108;-76
2021/06/11 03:49:47;;;;;;;5.57;3.38;;;;;;;;;;5037416;28;20021;-76
2021/06/11 03:52:13;;;;;;;6.25;3.50;;;;;;;;;;5033220;28;20087;-76
2021/06/11 03:54:43;;;;;;;4.15;3.45;;;;;;;;;;5032158;28;20037;-76
2021/06/11 03:57:10;;;;;;;4.63;3.70;;;;;;;;;;5033299;28;20128;-76
2021/06/11 03:59:39;;;;;;;9.90;3.92;;;;;;;;;;5048774;28;20055;-76
2021/06/11 04:02:05;;;;;;;3.60;3.20;;;;;;;;;;5051589;28;20064;-76
2021/06/11 04:04:32;;;;;;;7.07;3.55;;;;;;;;;;5053100;28;20040;-75
2021/06/11 04:07:07;;;;;;;9.25;4.18;;;;;;;;;;5053380;28;20043;-76
2021/06/11 04:09:43;;;;;;;9.13;3.85;;;;;;;;;;5053412;28;20481;-76
2021/06/11 04:12:10;;;;;;;5.43;3.38;;;;;;;;;;5053219;28;20064;-76
2021/06/11 04:14:42;;;;;;;5.75;4.15;;;;;;;;;;5052461;28;20041;-75
2021/06/11 04:17:11;;;;;;;7.35;3.97;;;;;;;;;;5044673;28;20064;-76
2021/06/11 04:19:57;;;;;;;10.75;3.92;;;;;;;;;;5033419;28;20069;-76
2021/06/11 04:22:24;;;;;;;11.80;4.57;;;;;;;;;;5033675;28;20049;-76
2021/06/11 04:24:50;;;;;;;6.70;3.47;;;;;;;;;;5041309;28;20040;-76
2021/06/11 04:27:19;;;;;;;5.97;3.50;;;;;;;;;;5047595;28;20037;-76
2021/06/11 04:29:46;;;;;;;6.80;3.63;;;;;;;;;;5041768;28;20040;-76
2021/06/11 04:32:11;;;;;;;6.20;3.85;;;;;;;;;;5042970;28;20071;-75
2021/06/11 04:34:37;;;;;;;9.32;3.75;;;;;;;;;;5048022;28;20049;-75
2021/06/11 04:37:03;;;;;;;4.50;3.58;;;;;;;;;;5043912;28;20163;-76
2021/06/11 04:39:28;;;;;;;3.92;3.45;;;;;;;;;;5044428;28;20036;-76
2021/06/11 04:41:54;;;;;;;6.70;4.07;;;;;;;;;;5056862;28;20455;-77
2021/06/11 04:44:22;;;;;;;12.55;6.68;;;;;;;;;;5055936;28;20064;-75
2021/06/11 04:46:47;;;;;;;16.40;7.28;;;;;;;;;;5052957;28;20114;-75
2021/06/11 04:49:13;;;;;;;11.60;6.70;;;;;;;;;;5044915;28;20068;-75
2021/06/11 04:51:39;;;;;;;15.07;7.72;;;;;;;;;;5023767;28;20234;-75
2021/06/11 04:54:04;;;;;;;10.48;7.72;;;;;;;;;;5034841;28;20099;-75
2021/06/11 04:56:30;;;;;;;9.93;7.40;;;;;;;;;;5035940;28;20480;-75
2021/06/11 04:58:58;;;;;;;9.85;6.63;;;;;;;;;;5046930;28;20120;-75
2021/06/11 05:01:23;;;;;;;12.23;6.07;;;;;;;;;;5055939;28;20116;-75
2021/06/11 05:03:50;;;;;;;7.45;5.50;;;;;;;;;;5056172;28;20120;-75
2021/06/11 05:06:15;;;;;;;10.25;7.20;;;;;;;;;;5052361;28;20047;-76
2021/06/11 05:08:42;;;;;;;12.43;5.95;;;;;;;;;;5055942;28;20390;-76
2021/06/11 05:11:08;;;;;;;13.15;7.25;;;;;;;;;;5054648;28;20056;-76
2021/06/11 05:13:33;;;;;;;8.57;6.63;;;;;;;;;;5056045;28;20045;-76
2021/06/11 05:15:59;;;;;;;47.10;8.07;;;;;;;;;;5054459;28;20036;-76
2021/06/11 05:18:26;;;;;;;11.85;7.38;;;;;;;;;;5055548;28;20037;-76
2021/06/11 05:20:52;;;;;;;11.73;7.47;;;;;;;;;;5045410;28;20260;-76
2021/06/11 05:23:19;;;;;;;12.35;7.07;;;;;;;;;;5035592;28;20041;-75
2021/06/11 05:25:46;;;;;;;11.10;7.55;;;;;;;;;;5035494;28;20041;-76
2021/06/11 05:28:11;;;;;;;10.60;6.68;;;;;;;;;;5039073;28;20471;-76
2021/06/11 05:30:37;;;;;;;8.27;6.30;;;;;;;;;;5047824;28;20040;-76
2021/06/11 05:33:03;;;;;;;12.70;6.93;;;;;;;;;;5043885;28;20044;-76
2021/06/11 05:35:29;;;;;;;8.30;7.35;;;;;;;;;;5035383;28;20025;-76
2021/06/11 05:37:58;;;;;;;8.75;5.72;;;;;;;;;;5046527;28;20546;-76
2021/06/11 05:40:24;;;;;;;7.15;5.25;;;;;;;;;;5033964;28;20034;-76
2021/06/11 05:42:49;;;;;;;8.85;5.70;;;;;;;;;;5046994;28;20025;-76
2021/06/11 05:45:15;;;;;;;12.13;6.53;;;;;;;;;;5033863;28;20057;-78
2021/06/11 05:47:41;;;;;;;9.73;6.57;;;;;;;;;;5035186;28;20038;-76
2021/06/11 05:50:08;;;;;;;9.93;5.85;;;;;;;;;;5036856;28;20482;-76
2021/06/11 05:52:34;;;;;;;7.93;5.95;;;;;;;;;;5043068;28;20088;-78
2021/06/11 05:55:00;;;;;;;7.72;5.53;;;;;;;;;;5034721;28;20037;-75
2021/06/11 05:57:25;;;;;;;9.38;5.35;;;;;;;;;;5033891;28;20041;-76
2021/06/11 05:59:53;;;;;;;11.85;6.35;;;;;;;;;;5050568;28;20036;-76
2021/06/11 06:02:19;;;;;;;8.57;6.55;;;;;;;;;;5054461;28;20033;-76
2021/06/11 06:04:44;;;;;;;6.80;5.82;;;;;;;;;;5054589;28;20040;-77
2021/06/11 06:07:10;;;;;;;6.68;5.60;;;;;;;;;;5053163;28;20033;-76
2021/06/11 06:09:35;;;;;;;7.53;4.75;;;;;;;;;;5053347;28;20033;-76
2021/06/11 06:12:00;;;;;;;6.03;4.40;;;;;;;;;;5054301;28;20132;-76
2021/06/11 06:14:26;;;;;;;5.20;4.53;;;;;;;;;;5054488;28;20036;-76
2021/06/11 06:16:51;;;;;;;4.10;3.47;;;;;;;;;;5054208;28;20052;-77
2021/06/11 06:19:17;;;;;;;7.35;3.65;;;;;;;;;;5054458;28;20048;-76
2021/06/11 06:21:42;;;;;;;3.85;3.45;;;;;;;;;;5054351;28;20029;-76
2021/06/11 06:24:08;;;;;;;5.03;3.08;;;;;;;;;;5044032;28;20045;-77
2021/06/11 06:26:35;;;;;;;4.35;3.20;;;;;;;;;;5036276;28;20040;-77
2021/06/11 06:29:01;;;;;;;4.85;3.03;;;;;;;;;;5046091;28;20431;-76
2021/06/11 06:31:26;;;;;;;6.15;3.75;;;;;;;;;;5054675;28;20083;-77
2021/06/11 06:33:52;;;;;;;14.80;4.20;;;;;;;;;;5054570;28;20036;-73
2021/06/11 06:36:17;;;;;;;7.00;3.30;;;;;;;;;;5053899;28;20072;-73
2021/06/11 06:38:43;;;;;;;5.13;3.70;;;;;;;;;;5053944;28;20512;-74
2021/06/11 06:41:08;;;;;;;7.57;3.78;;;;;;;;;;5053813;28;20048;-73
2021/06/11 06:43:34;;;;;;;6.75;3.13;;;;;;;;;;5053620;28;20091;-74
2021/06/11 06:46:00;;;;;;;6.22;3.00;;;;;;;;;;5052811;28;20407;-74
2021/06/11 06:48:26;;;;;;;7.95;3.13;;;;;;;;;;5052369;28;20734;-74
2021/06/11 06:50:56;;;;;;;6.53;2.65;;;;;;;;;;5052433;28;20162;-73
2021/06/11 06:53:21;;;;;;;8.10;2.97;;;;;;;;;;5053528;28;20124;-74
2021/06/11 06:55:47;;;;;;;3.38;2.38;;;;;;;;;;5053867;28;20167;-75
2021/06/11 06:58:12;;;;;;;4.82;2.88;;;;;;;;;;5053698;28;20119;-75
2021/06/11 07:00:38;;;;;;;4.82;3.05;;;;;;;;;;5053454;28;20033;-74
2021/06/11 07:03:03;;;;;;;3.88;2.70;;;;;;;;;;5053473;28;20037;-74
2021/06/11 07:05:29;;;;;;;3.92;2.70;;;;;;;;;;5053370;28;20070;-75
2021/06/11 07:07:54;;;;;;;5.63;2.90;;;;;;;;;;5052006;28;20123;-75
2021/06/11 07:10:20;;;;;;;3.58;2.53;;;;;;;;;;5053684;28;20043;-74
2021/06/11 07:12:46;;;;;;;4.28;2.72;;;;;;;;;;5053582;28;20056;-75
2021/06/11 07:15:12;;;;;;;7.00;2.50;;;;;;;;;;5041735;28;20414;-77
2021/06/11 07:17:38;;;;;;;5.28;2.67;;;;;;;;;;5034788;28;20041;-76
2021/06/11 07:20:06;;;;;;;7.53;2.60;;;;;;;;;;5035734;28;20041;-77
2021/06/11 07:22:31;;;;;;;7.05;2.50;;;;;;;;;;5035267;28;20042;-76
2021/06/11 07:24:57;;;;;;;4.50;2.28;;;;;;;;;;5034386;28;20042;-77
2021/06/11 07:27:22;;;;;;;10.18;2.35;;;;;;;;;;5035597;28;20117;-76
2021/06/11 07:29:50;;;;;;;3.40;2.30;;;;;;;;;;5050801;28;20147;-76
2021/06/11 07:32:16;;;;;;;5.93;2.70;;;;;;;;;;5052210;28;20036;-76
2021/06/11 07:34:43;;;;;;;3.65;2.47;;;;;;;;;;5053563;28;20051;-76
2021/06/11 07:37:08;;;;;;;4.20;2.90;;;;;;;;;;5053328;28;20047;-76
2021/06/11 07:39:34;;;;;;;12.65;2.60;;;;;;;;;;5053438;28;20036;-77
2021/06/11 07:42:00;;;;;;;4.75;2.90;;;;;;;;;;5055324;28;20517;-76
2021/06/11 07:44:26;;;;;;;4.47;2.80;;;;;;;;;;5052814;28;20037;-76
2021/06/11 07:46:51;;;;;;;6.00;2.72;;;;;;;;;;5052481;28;20108;-75
2021/06/11 07:49:17;;;;;;;9.40;2.45;;;;;;;;;;5053388;28;20068;-76
2021/06/11 07:51:42;;;;;;;4.75;2.63;;;;;;;;;;5051066;28;20041;-76
2021/06/11 07:54:08;;;;;;;6.30;2.67;;;;;;;;;;5053277;28;20058;-76
2021/06/11 07:56:35;;;;;;;2.92;2.38;;;;;;;;;;5054273;28;20064;-76
2021/06/11 07:59:00;;;;;;;7.20;2.20;;;;;;;;;;5056348;28;20037;-76
2021/06/11 08:01:26;;;;;;;3.28;2.60;;;;;;;;;;5056989;28;20037;-77
2021/06/11 08:03:55;;;;;;;4.88;2.50;;;;;;;;;;5057906;28;20512;-76
2021/06/11 08:06:21;;;;;;;4.57;2.38;;;;;;;;;;5058380;28;20417;-76
2021/06/11 08:08:46;;;;;;;9.73;3.00;;;;;;;;;;5058620;28;20035;-76
2021/06/11 08:11:11;;;;;;;4.63;2.25;;;;;;;;;;5058074;28;20378;-75
2021/06/11 08:13:38;;;;;;;5.47;2.40;;;;;;;;;;5056672;28;20086;-76
2021/06/11 08:16:04;;;;;;;6.55;2.33;;;;;;;;;;5057451;28;20390;-76
2021/06/11 08:18:30;;;;;;;4.45;2.47;;;;;;;;;;5057785;28;20636;-76
2021/06/11 08:20:55;;;;;;;6.22;2.40;;;;;;;;;;5056688;28;20137;-76
2021/06/11 08:23:21;;;;;;;7.47;2.40;;;;;;;;;;5055514;28;20516;-76
2021/06/11 08:25:46;;;;;;;6.20;2.30;;;;;;;;;;5055210;28;20123;-77
2021/06/11 08:28:12;;;;;;;4.28;2.28;;;;;;;;;;5056840;28;20032;-76
2021/06/11 08:30:37;;;;;;;7.55;2.10;;;;;;;;;;5056853;28;20087;-77
2021/06/11 08:33:03;;;;;;;14.20;2.70;;;;;;;;;;5056554;28;20114;-76
2021/06/11 08:35:29;;;;;;;6.00;2.63;;;;;;;;;;5056286;28;20029;-78
2021/06/11 08:37:55;;;;;;;3.42;2.10;;;;;;;;;;5055493;28;20120;-77
2021/06/11 08:40:21;;;;;;;19.33;2.33;;;;;;;;;;5056488;28;20037;-78
2021/06/11 08:42:47;;;;;;;4.70;2.17;;;;;;;;;;5050405;28;20029;-77
2021/06/11 08:45:14;;;;;;;7.68;2.20;;;;;;;;;;5055792;28;20490;-77
2021/06/11 08:47:46;;;;;;;5.32;2.60;;;;;;;;;;5059963;28;20036;-79
2021/06/11 08:50:12;;;;;;;6.40;2.38;;;;;;;;;;5060795;28;20044;-80
2021/06/11 08:52:37;;;;;;;6.85;2.40;;;;;;;;;;5058945;28;20033;-77
2021/06/11 08:55:03;;;;;;;8.40;2.53;;;;;;;;;;5059566;28;20045;-81
2021/06/11 08:57:29;;;;;;;7.28;2.50;;;;;;;;;;5059944;28;20558;-78
2021/06/11 08:59:54;;;;;;;5.03;2.75;;;;;;;;;;5056143;28;20040;-77
2021/06/11 09:02:23;;;;;;;6.20;3.45;;;;;;;;;;5057560;28;20040;-77
2021/06/11 09:04:52;;;;;;;4.13;2.88;;;;;;;;;;5056547;28;20387;-77
2021/06/11 09:07:23;;;;;;;8.93;2.70;;;;;;;;;;5056449;28;20112;-77
2021/06/11 09:09:50;;;;;;;5.75;2.40;;;;;;;;;;5057517;28;20044;-81
2021/06/11 09:12:29;;;;;;;8.77;2.47;;;;;;;;;;5060351;28;20485;-79
2021/06/11 09:15:07;;;;;;;4.00;2.40;;;;;;;;;;5059357;28;20103;-79
2021/06/11 09:17:40;;;;;;;4.07;2.58;;;;;;;;;;5059469;28;20104;-79
2021/06/11 09:20:17;;;;;;;7.85;2.25;;;;;;;;;;5060829;28;20044;-78
2021/06/11 09:22:54;;;;;;;5.10;2.60;;;;;;;;;;5055465;28;20032;-77
2021/06/11 09:25:45;;;;;;;5.47;2.80;;;;;;;;;;5054110;28;20116;-77
2021/06/11 09:28:11;;;;;;;7.55;2.70;;;;;;;;;;5055657;28;20083;-77
2021/06/11 09:30:36;;;;;;;8.52;2.38;;;;;;;;;;5055465;28;20041;-77
2021/06/11 09:33:04;;;;;;;10.88;2.67;;;;;;;;;;5055951;28;20037;-77
2021/06/11 09:35:32;;;;;;;4.22;2.35;;;;;;;;;;5055399;28;20094;-77
2021/06/11 09:38:25;;;;;;;12.70;2.40;;;;;;;;;;5055179;28;20128;-77
2021/06/11 09:41:07;;;;;;;10.40;2.78;;;;;;;;;;5055159;28;20037;-77
2021/06/11 09:43:34;;;;;;;7.72;2.60;;;;;;;;;;5053067;28;20049;-77
2021/06/11 09:46:04;;;;;;;6.80;2.33;;;;;;;;;;5055566;28;20068;-77
2021/06/11 09:48:39;;;;;;;11.10;2.90;;;;;;;;;;5055048;28;20076;-77
2021/06/11 09:51:12;;;;;;;4.18;2.70;;;;;;;;;;5055361;28;20033;-78
2021/06/11 09:53:38;;;;;;;6.07;2.90;;;;;;;;;;5056289;28;20151;-78
2021/06/11 09:56:03;;;;;;;8.25;2.70;;;;;;;;;;5056212;28;20063;-77
2021/06/11 09:58:34;;;;;;;3.05;2.30;;;;;;;;;;5056025;28;20121;-78
2021/06/11 10:01:01;;;;;;;2.58;2.03;;;;;;;;;;5039271;28;20110;-79
2021/06/11 10:03:27;;;;;;;4.72;2.70;;;;;;;;;;5058434;28;20033;-79
2021/06/11 10:05:55;;;;;;;7.75;3.38;;;;;;;;;;5060109;28;20029;-79
2021/06/11 10:08:21;;;;;;;8.50;2.20;;;;;;;;;;5059287;28;20029;-81
2021/06/11 10:10:48;;;;;;;7.45;2.40;;;;;;;;;;5059191;28;20072;-82
2021/06/11 10:13:15;;;;;;;4.70;2.25;;;;;;;;;;5057706;28;20052;-80
2021/06/11 10:15:43;;;;;;;4.63;2.00;;;;;;;;;;5058857;28;20062;-82
2021/06/11 10:18:09;;;;;;;3.08;2.38;;;;;;;;;;5059182;28;20052;-81
2021/06/11 10:20:35;;;;;;;6.93;2.58;;;;;;;;;;5057167;28;20029;-79
2021/06/11 10:23:04;;;;;;;6.97;2.70;;;;;;;;;;5058026;28;20043;-78
2021/06/11 10:25:30;;;;;;;6.00;2.78;;;;;;;;;;5056689;28;20044;-79
2021/06/11 10:27:56;;;;;;;6.10;2.60;;;;;;;;;;5054360;28;20013;-81
2021/06/11 10:30:25;;;;;;;6.65;2.60;;;;;;;;;;5041762;28;20067;-80
2021/06/11 10:32:51;;;;;;;4.38;2.47;;;;;;;;;;5041565;28;20564;-80
2021/06/11 10:35:35;;;;;;;4.97;2.22;;;;;;;;;;5051624;28;20032;-85
2021/06/11 10:38:00;;;;;;;2.80;2.47;;;;;;;;;;5058033;28;20029;-86
2021/06/11 10:40:38;;;;;;;7.75;2.22;;;;;;;;;;5043409;28;20415;-79
2021/06/11 10:43:23;;;;;;;3.78;2.10;;;;;;;;;;5046626;28;20365;-83
2021/06/11 10:45:50;;;;;;;3.55;2.40;;;;;;;;;;5049187;28;20810;-79
2021/06/11 10:48:16;;;;;;;10.98;2.85;;;;;;;;;;5055999;28;20689;-88
2021/06/11 10:50:43;;;;;;;5.00;2.60;;;;;;;;;;5038382;28;20134;-84
2021/06/11 10:53:11;;;;;;;3.40;2.42;;;;;;;;;;5054314;28;20044;-83
2021/06/11 10:55:46;;;;;;;8.10;2.55;;;;;;;;;;5055578;28;20044;-85
2021/06/11 10:58:11;;;;;;;5.93;2.53;;;;;;;;;;5060018;28;20041;-83
2021/06/11 11:00:39;;;;;;;11.48;2.90;;;;;;;;;;5056252;28;20048;-86
2021/06/11 11:03:06;;;;;;;5.53;2.85;;;;;;;;;;5058649;28;20043;-78
2021/06/11 11:05:37;;;;;;;3.60;2.42;;;;;;;;;;5052757;28;20124;-81
2021/06/11 11:08:06;;;;;;;11.25;2.67;;;;;;;;;;5057510;28;20087;-83
2021/06/11 11:10:36;;;;;;;5.75;2.30;;;;;;;;;;5052872;28;20492;-81
2021/06/11 11:13:04;;;;;;;6.85;2.38;;;;;;;;;;5040458;28;20490;-84
2021/06/11 11:15:32;;;;;;;6.38;3.40;;;;;;;;;;5043360;28;20089;-81
2021/06/11 11:17:59;;;;;;;12.15;3.20;;;;;;;;;;5046449;28;20029;-82
2021/06/11 11:20:30;;;;;;;4.57;2.63;;;;;;;;;;5037931;28;20120;-80
2021/06/11 11:22:59;;;;;;;12.60;3.00;;;;;;;;;;5042965;28;20021;-83
2021/06/11 11:25:25;;;;;;;8.20;3.00;;;;;;;;;;5053742;28;20052;-80
2021/06/11 11:27:55;;;;;;;5.80;3.13;;;;;;;;;;5035068;28;20037;-82
2021/06/11 11:30:24;;;;;;;4.20;2.60;;;;;;;;;;5036503;28;20041;-81
2021/06/11 11:32:50;;;;;;;5.22;2.38;;;;;;;;;;5043329;28;20056;-78
2021/06/11 11:35:18;;;;;;;5.22;3.03;;;;;;;;;;5041001;28;20033;-78
2021/06/11 11:37:44;;;;;;;6.05;2.70;;;;;;;;;;5035964;28;20033;-78
2021/06/11 11:40:11;;;;;;;9.82;3.17;;;;;;;;;;5033712;28;20171;-77
2021/06/11 11:42:37;;;;;;;5.22;3.30;;;;;;;;;;5031730;28;20033;-77
2021/06/11 11:45:04;;;;;;;6.45;2.67;;;;;;;;;;5032666;28;20076;-77
2021/06/11 11:47:29;;;;;;;7.60;3.22;;;;;;;;;;5031898;28;20116;-77
2021/06/11 11:49:55;;;;;;;9.57;3.35;;;;;;;;;;5033157;28;20458;-77
2021/06/11 11:52:20;;;;;;;5.55;3.15;;;;;;;;;;5031892;28;20125;-77
2021/06/11 11:54:46;;;;;;;6.75;2.80;;;;;;;;;;5042114;28;20051;-77
2021/06/11 11:57:11;;;;;;;7.55;3.50;;;;;;;;;;5052415;28;20061;-77
2021/06/11 11:59:36;;;;;;;7.55;2.80;;;;;;;;;;5052611;28;20041;-77
2021/06/11 12:02:02;;;;;;;13.68;3.95;;;;;;;;;;5053077;28;20033;-77
2021/06/11 12:04:27;;;;;;;5.53;2.88;;;;;;;;;;5052872;28;20060;-77
2021/06/11 12:06:53;;;;;;;5.22;2.63;;;;;;;;;;5051450;28;20387;-77
2021/06/11 12:09:18;;;;;;;5.38;3.38;;;;;;;;;;5052835;28;20048;-77
2021/06/11 12:11:44;;;;;;;5.72;2.45;;;;;;;;;;5051820;28;20048;-77
2021/06/11 12:14:09;;;;;;;5.72;2.30;;;;;;;;;;5052661;28;20021;-77
2021/06/11 12:16:35;;;;;;;8.95;2.78;;;;;;;;;;5052800;28;20123;-77
2021/06/11 12:19:02;;;;;;;6.82;2.35;;;;;;;;;;5051688;28;20040;-77
2021/06/11 12:21:27;;;;;;;11.35;2.83;;;;;;;;;;5052858;28;20037;-77
2021/06/11 12:23:52;;;;;;;10.48;3.97;;;;;;;;;;5052819;28;20040;-77
2021/06/11 12:26:18;;;;;;;4.97;2.70;;;;;;;;;;5052642;28;20422;-77
2021/06/11 12:28:44;;;;;;;5.65;2.72;;;;;;;;;;5034389;28;20108;-77
2021/06/11 12:31:09;;;;;;;5.45;2.65;;;;;;;;;;5053189;28;20041;-77
2021/06/11 12:33:35;;;;;;;7.55;3.53;;;;;;;;;;5052865;28;20041;-77
2021/06/11 12:36:03;;;;;;;10.40;3.08;;;;;;;;;;5051524;28;20036;-77
2021/06/11 12:38:28;;;;;;;12.88;4.03;;;;;;;;;;5051302;28;20036;-77
2021/06/11 12:40:56;;;;;;;6.28;3.33;;;;;;;;;;5053135;28;20479;-77
2021/06/11 12:44:14;;;;;;;3.83;2.63;;;;;;;;;;5052020;28;20052;-76
2021/06/11 12:46:08;;;;;;;4.95;3.20;;;;;;;;;;5055562;28;20439;-77
2021/06/11 12:48:34;;;;;;;6.90;3.80;;;;;;;;;;5056685;28;20025;-77
2021/06/11 12:50:59;;;;;;;8.32;3.38;;;;;;;;;;5054798;28;20024;-77
2021/06/11 12:53:24;;;;;;;8.35;3.10;;;;;;;;;;5056052;28;20448;-77
2021/06/11 12:55:50;;;;;;;4.80;3.10;;;;;;;;;;5055984;28;20037;-77
2021/06/11 12:58:15;;;;;;;7.47;3.28;;;;;;;;;;5055455;28;20602;-77
2021/06/11 13:00:41;;;;;;;5.30;2.50;;;;;;;;;;5055988;28;20033;-77
2021/06/11 13:03:06;;;;;;;6.30;2.58;;;;;;;;;;5056119;28;20048;-77
2021/06/11 13:05:31;;;;;;;10.77;3.20;;;;;;;;;;5056016;28;20068;-77
2021/06/11 13:07:57;;;;;;;7.78;2.40;;;;;;;;;;5056036;28;20090;-77
2021/06/11 13:10:22;;;;;;;5.05;2.15;;;;;;;;;;5056119;28;20047;-77
2021/06/11 13:12:48;;;;;;;4.32;2.65;;;;;;;;;;5055933;28;20033;-77
2021/06/11 13:15:14;;;;;;;5.78;2.50;;;;;;;;;;5054250;28;20083;-77
2021/06/11 13:17:39;;;;;;;4.68;2.10;;;;;;;;;;5055496;28;20037;-77
2021/06/11 13:20:06;;;;;;;15.60;3.00;;;;;;;;;;5055467;28;20047;-77
2021/06/11 13:22:31;;;;;;;4.40;2.83;;;;;;;;;;5055666;28;20063;-77
2021/06/11 13:24:57;;;;;;;9.80;2.65;;;;;;;;;;5055310;28;20033;-77
2021/06/11 13:27:22;;;;;;;4.35;2.00;;;;;;;;;;5055413;28;20032;-77
2021/06/11 13:29:48;;;;;;;5.65;2.33;;;;;;;;;;5055323;28;20095;-77
2021/06/11 13:32:13;;;;;;;4.47;1.85;;;;;;;;;;5055478;28;20119;-77
2021/06/11 13:34:39;;;;;;;3.78;2.03;;;;;;;;;;5055171;28;20044;-77
2021/06/11 13:37:04;;;;;;;6.70;2.50;;;;;;;;;;5053873;28;20040;-77
2021/06/11 13:39:29;;;;;;;8.73;2.28;;;;;;;;;;5054135;28;20036;-77
2021/06/11 13:41:55;;;;;;;19.38;2.90;;;;;;;;;;5053998;28;20379;-77
2021/06/11 13:44:20;;;;;;;3.47;1.80;;;;;;;;;;5054429;28;20525;-77
2021/06/11 13:46:46;;;;;;;4.70;1.60;;;;;;;;;;5054330;28;20033;-77
2021/06/11 13:49:11;;;;;;;6.75;2.00;;;;;;;;;;5054918;28;20113;-77
2021/06/11 13:51:37;;;;;;;3.45;1.83;;;;;;;;;;5055933;28;20045;-77
2021/06/11 13:54:02;;;;;;;3.80;1.92;;;;;;;;;;5054742;28;20040;-77
2021/06/11 13:56:28;;;;;;;3.92;2.05;;;;;;;;;;5054990;28;20413;-77
2021/06/11 13:58:53;;;;;;;4.25;2.00;;;;;;;;;;5052582;28;20056;-77
2021/06/11 14:01:19;;;;;;;7.78;1.80;;;;;;;;;;5055161;28;20372;-77
2021/06/11 14:03:44;;;;;;;4.25;2.25;;;;;;;;;;5054578;28;20037;-77
2021/06/11 14:06:10;;;;;;;4.75;2.08;;;;;;;;;;5054683;28;20025;-76
2021/06/11 14:08:35;;;;;;;5.55;2.00;;;;;;;;;;5053245;28;20044;-77
2021/06/11 14:11:01;;;;;;;3.80;2.08;;;;;;;;;;5054724;28;20041;-77
2021/06/11 14:13:28;;;;;;;6.03;2.25;;;;;;;;;;5054796;28;20025;-77
2021/06/11 14:15:54;;;;;;;3.10;1.90;;;;;;;;;;5053108;28;20041;-77
2021/06/11 14:18:22;;;;;;;3.33;2.08;;;;;;;;;;5054209;28;20036;-77
2021/06/11 14:20:47;;;;;;;5.15;2.17;;;;;;;;;;5053033;28;20125;-77
2021/06/11 14:23:14;;;;;;;7.07;2.08;;;;;;;;;;5054551;28;20437;-77
2021/06/11 14:25:43;;;;;;;3.45;2.10;;;;;;;;;;5053101;28;20048;-77
2021/06/11 14:28:09;;;;;;;8.32;2.03;;;;;;;;;;5053142;28;20040;-77
2021/06/11 14:30:35;;;;;;;3.67;2.05;;;;;;;;;;5053251;28;20383;-77
2021/06/11 14:33:00;;;;;;;2.70;2.20;;;;;;;;;;5053661;28;20115;-77
2021/06/11 14:35:26;;;;;;;4.20;2.10;;;;;;;;;;5054363;28;20040;-77
2021/06/11 14:37:51;;;;;;;4.03;2.25;;;;;;;;;;5054163;28;20036;-77
2021/06/11 14:40:18;;;;;;;7.85;1.98;;;;;;;;;;5053197;28;20029;-77
2021/06/11 14:42:43;;;;;;;4.38;2.28;;;;;;;;;;5054062;28;20032;-77